sensor_id;sensor_type;location;lat;lon;timestamp;P1;durP1;ratioP1;P2;durP2;ratioP2
75220;SDS011;63802;53.232;6.570;2022-12-07T00:01:05;13.30;;;2.20;;
75220;SDS011;63802;53.232;6.570;2022-12-07T00:03:31;7.63;;;1.17;;
75220;SDS011;63802;53.232;6.570;2022-12-07T00:05:57;6.10;;;0.95;;
75220;SDS011;63802;53.232;6.570;2022-12-07T00:08:23;3.25;;;0.98;;
75220;SDS011;63802;53.232;6.570;2022-12-07T00:10:49;1.05;;;0.70;;
75220;SDS011;63802;53.232;6.570;2022-12-07T00:13:14;6.03;;;1.13;;
75220;SDS011;63802;53.232;6.570;2022-12-07T00:15:40;9.23;;;1.55;;
75220;SDS011;63802;53.232;6.570;2022-12-07T00:18:08;5.53;;;1.10;;
75220;SDS011;63802;53.232;6.570;2022-12-07T00:20:33;12.70;;;1.38;;
75220;SDS011;63802;53.232;6.570;2022-12-07T00:22:59;3.53;;;0.98;;
75220;SDS011;63802;53.232;6.570;2022-12-07T00:25:24;7.32;;;1.27;;
75220;SDS011;63802;53.232;6.570;2022-12-07T00:27:52;5.82;;;1.10;;
75220;SDS011;63802;53.232;6.570;2022-12-07T00:30:20;4.47;;;0.98;;
75220;SDS011;63802;53.232;6.570;2022-12-07T00:32:46;3.72;;;0.77;;
75220;SDS011;63802;53.232;6.570;2022-12-07T00:35:12;2.97;;;1.13;;
75220;SDS011;63802;53.232;6.570;2022-12-07T00:37:38;6.40;;;0.80;;
75220;SDS011;63802;53.232;6.570;2022-12-07T00:40:03;7.25;;;1.05;;
75220;SDS011;63802;53.232;6.570;2022-12-07T00:42:29;5.20;;;1.42;;
75220;SDS011;63802;53.232;6.570;2022-12-07T00:44:55;12.85;;;1.33;;
75220;SDS011;63802;53.232;6.570;2022-12-07T00:47:20;7.53;;;1.00;;
75220;SDS011;63802;53.232;6.570;2022-12-07T00:49:45;4.88;;;1.25;;
75220;SDS011;63802;53.232;6.570;2022-12-07T00:52:11;7.40;;;0.82;;
75220;SDS011;63802;53.232;6.570;2022-12-07T00:54:37;7.75;;;1.08;;
75220;SDS011;63802;53.232;6.570;2022-12-07T00:57:02;3.40;;;0.47;;
75220;SDS011;63802;53.232;6.570;2022-12-07T00:59:28;2.78;;;0.45;;
75220;SDS011;63802;53.232;6.570;2022-12-07T01:01:53;4.15;;;0.80;;
75220;SDS011;63802;53.232;6.570;2022-12-07T01:04:19;6.45;;;0.80;;
75220;SDS011;63802;53.232;6.570;2022-12-07T01:06:45;3.92;;;0.68;;
75220;SDS011;63802;53.232;6.570;2022-12-07T01:09:10;4.43;;;0.75;;
75220;SDS011;63802;53.232;6.570;2022-12-07T01:11:35;2.70;;;0.40;;
75220;SDS011;63802;53.232;6.570;2022-12-07T01:14:01;3.63;;;0.60;;
75220;SDS011;63802;53.232;6.570;2022-12-07T01:16:29;5.32;;;0.68;;
75220;SDS011;63802;53.232;6.570;2022-12-07T01:18:56;3.97;;;1.15;;
75220;SDS011;63802;53.232;6.570;2022-12-07T01:21:24;9.98;;;1.30;;
75220;SDS011;63802;53.232;6.570;2022-12-07T01:23:51;6.20;;;0.65;;
75220;SDS011;63802;53.232;6.570;2022-12-07T01:26:18;3.42;;;0.82;;
75220;SDS011;63802;53.232;6.570;2022-12-07T01:28:49;1.83;;;0.73;;
75220;SDS011;63802;53.232;6.570;2022-12-07T01:31:16;3.78;;;0.88;;
75220;SDS011;63802;53.232;6.570;2022-12-07T01:33:44;1.90;;;0.57;;
75220;SDS011;63802;53.232;6.570;2022-12-07T01:38:44;6.53;;;0.93;;
75220;SDS011;63802;53.232;6.570;2022-12-07T01:41:11;5.57;;;0.93;;
75220;SDS011;63802;53.232;6.570;2022-12-07T01:43:36;4.82;;;1.00;;
75220;SDS011;63802;53.232;6.570;2022-12-07T01:46:06;1.40;;;0.60;;
75220;SDS011;63802;53.232;6.570;2022-12-07T01:48:33;5.93;;;1.17;;
75220;SDS011;63802;53.232;6.570;2022-12-07T01:51:07;2.80;;;0.98;;
75220;SDS011;63802;53.232;6.570;2022-12-07T01:53:36;5.53;;;0.85;;
75220;SDS011;63802;53.232;6.570;2022-12-07T01:56:08;0.75;;;0.50;;
75220;SDS011;63802;53.232;6.570;2022-12-07T01:58:36;1.85;;;0.60;;
75220;SDS011;63802;53.232;6.570;2022-12-07T02:01:02;7.13;;;0.70;;
75220;SDS011;63802;53.232;6.570;2022-12-07T02:03:32;2.80;;;0.55;;
75220;SDS011;63802;53.232;6.570;2022-12-07T02:06:05;3.08;;;0.52;;
75220;SDS011;63802;53.232;6.570;2022-12-07T02:08:32;2.75;;;0.88;;
75220;SDS011;63802;53.232;6.570;2022-12-07T02:10:59;12.30;;;1.60;;
75220;SDS011;63802;53.232;6.570;2022-12-07T02:13:26;4.65;;;0.88;;
75220;SDS011;63802;53.232;6.570;2022-12-07T02:27:42;7.03;;;0.85;;
75220;SDS011;63802;53.232;6.570;2022-12-07T02:30:13;10.18;;;0.95;;
75220;SDS011;63802;53.232;6.570;2022-12-07T02:38:13;7.68;;;1.60;;
75220;SDS011;63802;53.232;6.570;2022-12-07T02:41:29;7.35;;;0.98;;
75220;SDS011;63802;53.232;6.570;2022-12-07T02:43:39;5.38;;;1.02;;
75220;SDS011;63802;53.232;6.570;2022-12-07T02:46:11;9.40;;;1.35;;
75220;SDS011;63802;53.232;6.570;2022-12-07T02:51:45;3.90;;;0.93;;
75220;SDS011;63802;53.232;6.570;2022-12-07T02:54:12;12.02;;;1.67;;
75220;SDS011;63802;53.232;6.570;2022-12-07T03:19:15;1.35;;;0.45;;
75220;SDS011;63802;53.232;6.570;2022-12-07T03:21:49;5.35;;;0.75;;
75220;SDS011;63802;53.232;6.570;2022-12-07T03:24:22;2.63;;;0.77;;
75220;SDS011;63802;53.232;6.570;2022-12-07T03:26:52;3.53;;;0.70;;
75220;SDS011;63802;53.232;6.570;2022-12-07T03:29:24;4.65;;;0.70;;
75220;SDS011;63802;53.232;6.570;2022-12-07T03:34:32;2.45;;;0.77;;
75220;SDS011;63802;53.232;6.570;2022-12-07T03:37:03;4.30;;;0.85;;
75220;SDS011;63802;53.232;6.570;2022-12-07T03:39:41;7.10;;;1.05;;
75220;SDS011;63802;53.232;6.570;2022-12-07T03:42:14;4.22;;;0.68;;
75220;SDS011;63802;53.232;6.570;2022-12-07T03:44:40;11.57;;;1.05;;
75220;SDS011;63802;53.232;6.570;2022-12-07T03:47:22;9.45;;;0.75;;
75220;SDS011;63802;53.232;6.570;2022-12-07T03:50:00;4.90;;;0.77;;
75220;SDS011;63802;53.232;6.570;2022-12-07T03:52:32;4.30;;;0.70;;
75220;SDS011;63802;53.232;6.570;2022-12-07T03:55:16;2.35;;;0.60;;
75220;SDS011;63802;53.232;6.570;2022-12-07T03:57:58;5.72;;;0.80;;
75220;SDS011;63802;53.232;6.570;2022-12-07T04:00:28;1.70;;;0.60;;
75220;SDS011;63802;53.232;6.570;2022-12-07T04:02:55;2.75;;;0.43;;
75220;SDS011;63802;53.232;6.570;2022-12-07T04:05:22;5.97;;;0.50;;
75220;SDS011;63802;53.232;6.570;2022-12-07T04:07:48;1.75;;;0.28;;
75220;SDS011;63802;53.232;6.570;2022-12-07T04:10:14;5.38;;;0.70;;
75220;SDS011;63802;53.232;6.570;2022-12-07T04:12:39;9.32;;;1.02;;
75220;SDS011;63802;53.232;6.570;2022-12-07T04:15:05;5.88;;;0.60;;
75220;SDS011;63802;53.232;6.570;2022-12-07T04:17:31;3.78;;;0.77;;
75220;SDS011;63802;53.232;6.570;2022-12-07T04:19:57;5.55;;;0.70;;
75220;SDS011;63802;53.232;6.570;2022-12-07T04:22:22;3.05;;;0.60;;
75220;SDS011;63802;53.232;6.570;2022-12-07T04:24:48;5.22;;;0.70;;
75220;SDS011;63802;53.232;6.570;2022-12-07T04:27:13;3.47;;;0.55;;
75220;SDS011;63802;53.232;6.570;2022-12-07T04:29:39;3.67;;;0.85;;
75220;SDS011;63802;53.232;6.570;2022-12-07T04:32:04;8.57;;;0.77;;
75220;SDS011;63802;53.232;6.570;2022-12-07T04:34:30;7.90;;;1.20;;
75220;SDS011;63802;53.232;6.570;2022-12-07T04:36:55;8.05;;;0.98;;
75220;SDS011;63802;53.232;6.570;2022-12-07T04:39:22;12.75;;;0.80;;
75220;SDS011;63802;53.232;6.570;2022-12-07T04:41:51;2.88;;;0.70;;
75220;SDS011;63802;53.232;6.570;2022-12-07T04:44:18;4.65;;;1.00;;
75220;SDS011;63802;53.232;6.570;2022-12-07T04:46:44;2.63;;;0.60;;
75220;SDS011;63802;53.232;6.570;2022-12-07T04:49:11;2.47;;;0.50;;
75220;SDS011;63802;53.232;6.570;2022-12-07T04:51:37;8.60;;;1.30;;
75220;SDS011;63802;53.232;6.570;2022-12-07T04:54:03;1.75;;;0.38;;
75220;SDS011;63802;53.232;6.570;2022-12-07T04:56:29;6.50;;;0.95;;
75220;SDS011;63802;53.232;6.570;2022-12-07T04:58:54;2.92;;;0.75;;
75220;SDS011;63802;53.232;6.570;2022-12-07T05:01:20;2.33;;;1.10;;
75220;SDS011;63802;53.232;6.570;2022-12-07T05:03:47;3.25;;;0.82;;
75220;SDS011;63802;53.232;6.570;2022-12-07T05:06:13;5.05;;;0.70;;
75220;SDS011;63802;53.232;6.570;2022-12-07T05:08:38;2.42;;;0.50;;
75220;SDS011;63802;53.232;6.570;2022-12-07T05:11:06;0.82;;;0.63;;
75220;SDS011;63802;53.232;6.570;2022-12-07T05:13:32;4.50;;;0.30;;
75220;SDS011;63802;53.232;6.570;2022-12-07T05:15:58;1.38;;;0.40;;
75220;SDS011;63802;53.232;6.570;2022-12-07T05:18:24;3.97;;;0.77;;
75220;SDS011;63802;53.232;6.570;2022-12-07T05:20:50;3.30;;;0.90;;
75220;SDS011;63802;53.232;6.570;2022-12-07T05:23:16;4.25;;;0.73;;
75220;SDS011;63802;53.232;6.570;2022-12-07T05:25:42;1.67;;;0.60;;
75220;SDS011;63802;53.232;6.570;2022-12-07T05:28:08;6.03;;;0.85;;
75220;SDS011;63802;53.232;6.570;2022-12-07T05:30:33;4.35;;;0.90;;
75220;SDS011;63802;53.232;6.570;2022-12-07T05:32:59;2.88;;;0.60;;
75220;SDS011;63802;53.232;6.570;2022-12-07T05:35:24;4.00;;;1.73;;
75220;SDS011;63802;53.232;6.570;2022-12-07T05:37:49;6.82;;;1.13;;
75220;SDS011;63802;53.232;6.570;2022-12-07T05:40:15;6.07;;;1.05;;
75220;SDS011;63802;53.232;6.570;2022-12-07T05:42:41;2.03;;;0.75;;
75220;SDS011;63802;53.232;6.570;2022-12-07T05:45:07;10.07;;;0.88;;
75220;SDS011;63802;53.232;6.570;2022-12-07T05:47:34;7.70;;;0.90;;
75220;SDS011;63802;53.232;6.570;2022-12-07T05:49:59;5.05;;;1.13;;
75220;SDS011;63802;53.232;6.570;2022-12-07T05:52:25;13.77;;;1.33;;
75220;SDS011;63802;53.232;6.570;2022-12-07T05:54:51;4.03;;;1.02;;
75220;SDS011;63802;53.232;6.570;2022-12-07T05:57:17;4.55;;;1.02;;
75220;SDS011;63802;53.232;6.570;2022-12-07T05:59:42;5.95;;;1.00;;
75220;SDS011;63802;53.232;6.570;2022-12-07T06:02:09;4.97;;;1.25;;
75220;SDS011;63802;53.232;6.570;2022-12-07T06:04:37;3.38;;;0.80;;
75220;SDS011;63802;53.232;6.570;2022-12-07T06:07:05;3.40;;;0.85;;
75220;SDS011;63802;53.232;6.570;2022-12-07T06:09:32;10.63;;;1.45;;
75220;SDS011;63802;53.232;6.570;2022-12-07T06:11:58;4.32;;;1.33;;
75220;SDS011;63802;53.232;6.570;2022-12-07T06:14:43;9.75;;;1.25;;
75220;SDS011;63802;53.232;6.570;2022-12-07T06:17:08;4.68;;;0.68;;
75220;SDS011;63802;53.232;6.570;2022-12-07T06:19:34;5.63;;;0.68;;
75220;SDS011;63802;53.232;6.570;2022-12-07T06:22:00;4.40;;;0.77;;
75220;SDS011;63802;53.232;6.570;2022-12-07T06:24:25;6.88;;;0.93;;
75220;SDS011;63802;53.232;6.570;2022-12-07T06:26:51;6.72;;;1.02;;
75220;SDS011;63802;53.232;6.570;2022-12-07T06:29:17;8.63;;;0.70;;
75220;SDS011;63802;53.232;6.570;2022-12-07T06:31:44;5.85;;;0.85;;
75220;SDS011;63802;53.232;6.570;2022-12-07T06:34:10;2.38;;;0.88;;
75220;SDS011;63802;53.232;6.570;2022-12-07T06:36:39;1.67;;;0.63;;
75220;SDS011;63802;53.232;6.570;2022-12-07T06:39:05;3.03;;;0.80;;
75220;SDS011;63802;53.232;6.570;2022-12-07T06:41:34;1.75;;;0.52;;
75220;SDS011;63802;53.232;6.570;2022-12-07T06:44:01;4.72;;;0.90;;
75220;SDS011;63802;53.232;6.570;2022-12-07T06:46:27;7.88;;;1.00;;
75220;SDS011;63802;53.232;6.570;2022-12-07T06:48:53;2.63;;;0.77;;
75220;SDS011;63802;53.232;6.570;2022-12-07T06:51:18;6.28;;;0.98;;
75220;SDS011;63802;53.232;6.570;2022-12-07T06:53:44;6.25;;;1.05;;
75220;SDS011;63802;53.232;6.570;2022-12-07T06:56:09;7.88;;;1.00;;
75220;SDS011;63802;53.232;6.570;2022-12-07T06:58:35;4.38;;;0.90;;
75220;SDS011;63802;53.232;6.570;2022-12-07T07:01:01;3.63;;;0.60;;
75220;SDS011;63802;53.232;6.570;2022-12-07T07:03:27;7.30;;;1.00;;
75220;SDS011;63802;53.232;6.570;2022-12-07T07:05:54;5.72;;;1.08;;
75220;SDS011;63802;53.232;6.570;2022-12-07T07:08:20;1.52;;;0.63;;
75220;SDS011;63802;53.232;6.570;2022-12-07T07:10:46;5.88;;;0.70;;
75220;SDS011;63802;53.232;6.570;2022-12-07T07:13:12;3.35;;;0.73;;
75220;SDS011;63802;53.232;6.570;2022-12-07T07:15:38;1.38;;;0.70;;
75220;SDS011;63802;53.232;6.570;2022-12-07T07:18:04;5.63;;;1.10;;
75220;SDS011;63802;53.232;6.570;2022-12-07T07:20:31;2.13;;;0.82;;
75220;SDS011;63802;53.232;6.570;2022-12-07T07:22:56;6.40;;;1.10;;
75220;SDS011;63802;53.232;6.570;2022-12-07T07:25:23;10.13;;;1.25;;
75220;SDS011;63802;53.232;6.570;2022-12-07T07:27:48;2.60;;;0.95;;
75220;SDS011;63802;53.232;6.570;2022-12-07T07:30:14;3.30;;;0.50;;
75220;SDS011;63802;53.232;6.570;2022-12-07T07:32:40;1.58;;;0.68;;
75220;SDS011;63802;53.232;6.570;2022-12-07T07:35:10;2.17;;;0.75;;
75220;SDS011;63802;53.232;6.570;2022-12-07T07:37:35;4.30;;;0.73;;
75220;SDS011;63802;53.232;6.570;2022-12-07T07:40:00;4.53;;;0.70;;
75220;SDS011;63802;53.232;6.570;2022-12-07T07:42:26;4.18;;;1.20;;
75220;SDS011;63802;53.232;6.570;2022-12-07T07:44:52;7.43;;;0.88;;
75220;SDS011;63802;53.232;6.570;2022-12-07T07:47:19;11.80;;;1.23;;
75220;SDS011;63802;53.232;6.570;2022-12-07T07:49:45;4.25;;;0.95;;
75220;SDS011;63802;53.232;6.570;2022-12-07T07:52:11;3.83;;;0.90;;
75220;SDS011;63802;53.232;6.570;2022-12-07T07:54:37;7.10;;;1.02;;
75220;SDS011;63802;53.232;6.570;2022-12-07T07:57:03;5.43;;;1.38;;
75220;SDS011;63802;53.232;6.570;2022-12-07T07:59:30;7.03;;;1.65;;
75220;SDS011;63802;53.232;6.570;2022-12-07T08:01:55;6.32;;;2.03;;
75220;SDS011;63802;53.232;6.570;2022-12-07T08:04:21;10.05;;;1.65;;
75220;SDS011;63802;53.232;6.570;2022-12-07T08:06:48;10.95;;;1.65;;
75220;SDS011;63802;53.232;6.570;2022-12-07T08:09:13;8.52;;;1.48;;
75220;SDS011;63802;53.232;6.570;2022-12-07T08:11:40;12.27;;;2.10;;
75220;SDS011;63802;53.232;6.570;2022-12-07T08:14:06;7.57;;;1.95;;
75220;SDS011;63802;53.232;6.570;2022-12-07T08:16:31;17.73;;;2.58;;
75220;SDS011;63802;53.232;6.570;2022-12-07T08:18:58;3.20;;;1.55;;
75220;SDS011;63802;53.232;6.570;2022-12-07T08:21:23;10.25;;;1.83;;
75220;SDS011;63802;53.232;6.570;2022-12-07T08:23:51;5.88;;;1.88;;
75220;SDS011;63802;53.232;6.570;2022-12-07T08:26:17;5.78;;;1.65;;
75220;SDS011;63802;53.232;6.570;2022-12-07T08:28:42;6.43;;;1.98;;
75220;SDS011;63802;53.232;6.570;2022-12-07T08:31:11;6.63;;;1.92;;
75220;SDS011;63802;53.232;6.570;2022-12-07T08:33:38;9.15;;;2.05;;
75220;SDS011;63802;53.232;6.570;2022-12-07T08:36:06;8.27;;;1.25;;
75220;SDS011;63802;53.232;6.570;2022-12-07T08:38:43;6.97;;;1.02;;
75220;SDS011;63802;53.232;6.570;2022-12-07T08:41:09;12.23;;;1.60;;
75220;SDS011;63802;53.232;6.570;2022-12-07T08:43:35;9.05;;;1.30;;
75220;SDS011;63802;53.232;6.570;2022-12-07T08:48:39;8.35;;;1.38;;
75220;SDS011;63802;53.232;6.570;2022-12-07T08:51:09;4.18;;;1.08;;
75220;SDS011;63802;53.232;6.570;2022-12-07T08:53:35;6.20;;;1.00;;
75220;SDS011;63802;53.232;6.570;2022-12-07T08:56:03;4.93;;;0.93;;
75220;SDS011;63802;53.232;6.570;2022-12-07T08:58:30;5.40;;;1.17;;
75220;SDS011;63802;53.232;6.570;2022-12-07T09:00:55;9.13;;;1.50;;
75220;SDS011;63802;53.232;6.570;2022-12-07T09:03:21;9.00;;;2.67;;
75220;SDS011;63802;53.232;6.570;2022-12-07T09:05:47;3.38;;;1.20;;
75220;SDS011;63802;53.232;6.570;2022-12-07T09:08:13;5.32;;;1.25;;
75220;SDS011;63802;53.232;6.570;2022-12-07T09:10:39;5.93;;;1.35;;
75220;SDS011;63802;53.232;6.570;2022-12-07T09:13:06;9.23;;;1.13;;
75220;SDS011;63802;53.232;6.570;2022-12-07T09:15:32;6.38;;;1.00;;
75220;SDS011;63802;53.232;6.570;2022-12-07T09:17:58;6.03;;;1.10;;
75220;SDS011;63802;53.232;6.570;2022-12-07T09:20:24;3.58;;;1.05;;
75220;SDS011;63802;53.232;6.570;2022-12-07T09:22:50;6.43;;;1.13;;
75220;SDS011;63802;53.232;6.570;2022-12-07T09:25:16;3.78;;;1.00;;
75220;SDS011;63802;53.232;6.570;2022-12-07T09:27:42;7.00;;;1.02;;
75220;SDS011;63802;53.232;6.570;2022-12-07T09:30:08;3.80;;;0.50;;
75220;SDS011;63802;53.232;6.570;2022-12-07T09:32:33;2.60;;;0.63;;
75220;SDS011;63802;53.232;6.570;2022-12-07T09:34:59;3.95;;;0.80;;
75220;SDS011;63802;53.232;6.570;2022-12-07T09:37:25;5.50;;;1.20;;
75220;SDS011;63802;53.232;6.570;2022-12-07T09:39:51;2.03;;;0.68;;
75220;SDS011;63802;53.232;6.570;2022-12-07T09:44:52;3.30;;;0.70;;
75220;SDS011;63802;53.232;6.570;2022-12-07T09:47:21;1.65;;;0.57;;
75220;SDS011;63802;53.232;6.570;2022-12-07T09:49:47;0.80;;;0.60;;
75220;SDS011;63802;53.232;6.570;2022-12-07T09:54:50;2.75;;;0.60;;
75220;SDS011;63802;53.232;6.570;2022-12-07T09:57:17;3.63;;;0.75;;
75220;SDS011;63802;53.232;6.570;2022-12-07T09:59:45;4.80;;;1.42;;
75220;SDS011;63802;53.232;6.570;2022-12-07T10:02:46;4.28;;;0.68;;
75220;SDS011;63802;53.232;6.570;2022-12-07T10:05:13;4.93;;;1.13;;
75220;SDS011;63802;53.232;6.570;2022-12-07T10:07:41;4.45;;;0.82;;
75220;SDS011;63802;53.232;6.570;2022-12-07T10:10:12;2.03;;;0.68;;
75220;SDS011;63802;53.232;6.570;2022-12-07T10:12:54;7.30;;;1.42;;
75220;SDS011;63802;53.232;6.570;2022-12-07T10:18:37;2.58;;;0.90;;
75220;SDS011;63802;53.232;6.570;2022-12-07T10:21:16;5.65;;;0.90;;
75220;SDS011;63802;53.232;6.570;2022-12-07T10:24:01;3.78;;;0.88;;
75220;SDS011;63802;53.232;6.570;2022-12-07T10:26:30;3.88;;;1.33;;
75220;SDS011;63802;53.232;6.570;2022-12-07T10:29:02;1.45;;;0.93;;
75220;SDS011;63802;53.232;6.570;2022-12-07T10:31:38;4.70;;;0.98;;
75220;SDS011;63802;53.232;6.570;2022-12-07T10:34:11;3.70;;;1.27;;
75220;SDS011;63802;53.232;6.570;2022-12-07T10:36:52;11.82;;;1.65;;
75220;SDS011;63802;53.232;6.570;2022-12-07T10:39:19;1.38;;;0.65;;
75220;SDS011;63802;53.232;6.570;2022-12-07T10:41:58;5.80;;;0.80;;
75220;SDS011;63802;53.232;6.570;2022-12-07T10:44:26;4.07;;;0.98;;
75220;SDS011;63802;53.232;6.570;2022-12-07T10:54:51;3.53;;;0.90;;
75220;SDS011;63802;53.232;6.570;2022-12-07T10:57:26;3.72;;;1.10;;
75220;SDS011;63802;53.232;6.570;2022-12-07T11:08:25;4.00;;;0.60;;
75220;SDS011;63802;53.232;6.570;2022-12-07T11:13:54;5.93;;;1.48;;
75220;SDS011;63802;53.232;6.570;2022-12-07T11:21:48;4.05;;;0.90;;
75220;SDS011;63802;53.232;6.570;2022-12-07T11:24:50;3.35;;;0.75;;
75220;SDS011;63802;53.232;6.570;2022-12-07T11:32:49;4.55;;;1.15;;
75220;SDS011;63802;53.232;6.570;2022-12-07T11:38:16;9.00;;;0.98;;
75220;SDS011;63802;53.232;6.570;2022-12-07T11:40:45;3.20;;;1.10;;
75220;SDS011;63802;53.232;6.570;2022-12-07T11:43:32;7.40;;;1.23;;
75220;SDS011;63802;53.232;6.570;2022-12-07T11:48:45;5.10;;;1.10;;
75220;SDS011;63802;53.232;6.570;2022-12-07T11:51:13;6.55;;;1.00;;
75220;SDS011;63802;53.232;6.570;2022-12-07T11:53:59;3.03;;;1.00;;
75220;SDS011;63802;53.232;6.570;2022-12-07T11:56:30;7.25;;;0.90;;
75220;SDS011;63802;53.232;6.570;2022-12-07T12:06:35;2.00;;;1.02;;
75220;SDS011;63802;53.232;6.570;2022-12-07T12:09:06;4.55;;;0.88;;
75220;SDS011;63802;53.232;6.570;2022-12-07T12:20:16;3.42;;;0.90;;
75220;SDS011;63802;53.232;6.570;2022-12-07T12:22:58;7.25;;;1.08;;
75220;SDS011;63802;53.232;6.570;2022-12-07T12:25:26;5.18;;;0.65;;
75220;SDS011;63802;53.232;6.570;2022-12-07T12:27:56;0.52;;;0.45;;
75220;SDS011;63802;53.232;6.570;2022-12-07T12:30:26;8.68;;;1.00;;
75220;SDS011;63802;53.232;6.570;2022-12-07T12:51:57;4.35;;;0.95;;
75220;SDS011;63802;53.232;6.570;2022-12-07T12:54:24;6.05;;;1.40;;
75220;SDS011;63802;53.232;6.570;2022-12-07T12:56:58;11.80;;;1.40;;
75220;SDS011;63802;53.232;6.570;2022-12-07T12:59:28;5.57;;;0.82;;
75220;SDS011;63802;53.232;6.570;2022-12-07T13:01:56;2.63;;;0.80;;
75220;SDS011;63802;53.232;6.570;2022-12-07T13:34:01;3.58;;;0.73;;
75220;SDS011;63802;53.232;6.570;2022-12-07T13:36:30;4.80;;;1.07;;
75220;SDS011;63802;53.232;6.570;2022-12-07T13:39:10;6.68;;;1.83;;
75220;SDS011;63802;53.232;6.570;2022-12-07T13:41:51;5.93;;;0.98;;
75220;SDS011;63802;53.232;6.570;2022-12-07T13:44:19;3.80;;;1.02;;
75220;SDS011;63802;53.232;6.570;2022-12-07T13:49:32;2.50;;;0.60;;
75220;SDS011;63802;53.232;6.570;2022-12-07T13:52:23;3.65;;;0.70;;
75220;SDS011;63802;53.232;6.570;2022-12-07T13:57:29;1.35;;;0.75;;
75220;SDS011;63802;53.232;6.570;2022-12-07T13:59:57;3.50;;;0.60;;
75220;SDS011;63802;53.232;6.570;2022-12-07T14:02:28;1.42;;;0.68;;
75220;SDS011;63802;53.232;6.570;2022-12-07T14:05:14;4.05;;;1.00;;
75220;SDS011;63802;53.232;6.570;2022-12-07T14:07:53;2.35;;;0.65;;
75220;SDS011;63802;53.232;6.570;2022-12-07T14:10:32;0.85;;;0.63;;
75220;SDS011;63802;53.232;6.570;2022-12-07T14:13:04;5.35;;;0.85;;
75220;SDS011;63802;53.232;6.570;2022-12-07T14:16:01;2.45;;;1.00;;
75220;SDS011;63802;53.232;6.570;2022-12-07T14:18:38;2.55;;;0.98;;
75220;SDS011;63802;53.232;6.570;2022-12-07T14:23:34;3.90;;;1.00;;
75220;SDS011;63802;53.232;6.570;2022-12-07T14:26:21;3.08;;;1.13;;
75220;SDS011;63802;53.232;6.570;2022-12-07T14:28:47;6.72;;;2.03;;
75220;SDS011;63802;53.232;6.570;2022-12-07T14:31:15;1.65;;;0.90;;
75220;SDS011;63802;53.232;6.570;2022-12-07T14:33:43;1.60;;;0.95;;
75220;SDS011;63802;53.232;6.570;2022-12-07T14:36:10;2.17;;;1.10;;
75220;SDS011;63802;53.232;6.570;2022-12-07T14:38:38;6.55;;;1.30;;
75220;SDS011;63802;53.232;6.570;2022-12-07T14:41:04;1.25;;;0.80;;
75220;SDS011;63802;53.232;6.570;2022-12-07T14:43:54;2.67;;;1.00;;
75220;SDS011;63802;53.232;6.570;2022-12-07T14:46:22;5.88;;;1.20;;
75220;SDS011;63802;53.232;6.570;2022-12-07T14:48:49;2.85;;;1.00;;
75220;SDS011;63802;53.232;6.570;2022-12-07T14:51:15;1.02;;;0.68;;
75220;SDS011;63802;53.232;6.570;2022-12-07T14:53:45;3.90;;;0.88;;
75220;SDS011;63802;53.232;6.570;2022-12-07T14:56:14;3.35;;;0.80;;
75220;SDS011;63802;53.232;6.570;2022-12-07T14:58:41;1.67;;;0.73;;
75220;SDS011;63802;53.232;6.570;2022-12-07T15:01:06;1.08;;;0.47;;
75220;SDS011;63802;53.232;6.570;2022-12-07T15:03:32;2.70;;;0.70;;
75220;SDS011;63802;53.232;6.570;2022-12-07T15:05:59;1.55;;;0.70;;
75220;SDS011;63802;53.232;6.570;2022-12-07T15:08:25;4.38;;;1.23;;
75220;SDS011;63802;53.232;6.570;2022-12-07T15:10:52;4.22;;;0.80;;
75220;SDS011;63802;53.232;6.570;2022-12-07T15:13:17;2.55;;;0.73;;
75220;SDS011;63802;53.232;6.570;2022-12-07T15:16:02;3.58;;;0.50;;
75220;SDS011;63802;53.232;6.570;2022-12-07T15:18:27;6.38;;;0.70;;
75220;SDS011;63802;53.232;6.570;2022-12-07T15:20:53;4.38;;;1.30;;
75220;SDS011;63802;53.232;6.570;2022-12-07T15:23:19;3.90;;;0.88;;
75220;SDS011;63802;53.232;6.570;2022-12-07T15:25:46;4.63;;;1.00;;
75220;SDS011;63802;53.232;6.570;2022-12-07T15:28:13;6.40;;;1.60;;
75220;SDS011;63802;53.232;6.570;2022-12-07T15:30:40;3.97;;;1.30;;
75220;SDS011;63802;53.232;6.570;2022-12-07T15:33:07;1.80;;;0.95;;
75220;SDS011;63802;53.232;6.570;2022-12-07T15:35:33;12.10;;;1.40;;
75220;SDS011;63802;53.232;6.570;2022-12-07T15:37:58;2.85;;;1.23;;
75220;SDS011;63802;53.232;6.570;2022-12-07T15:40:26;5.72;;;0.90;;
75220;SDS011;63802;53.232;6.570;2022-12-07T15:42:52;4.93;;;1.13;;
75220;SDS011;63802;53.232;6.570;2022-12-07T15:45:18;3.00;;;0.80;;
75220;SDS011;63802;53.232;6.570;2022-12-07T15:47:44;3.95;;;0.93;;
75220;SDS011;63802;53.232;6.570;2022-12-07T15:50:11;8.75;;;1.42;;
75220;SDS011;63802;53.232;6.570;2022-12-07T15:52:39;3.20;;;1.35;;
75220;SDS011;63802;53.232;6.570;2022-12-07T15:55:05;7.55;;;0.77;;
75220;SDS011;63802;53.232;6.570;2022-12-07T15:57:32;5.28;;;1.17;;
75220;SDS011;63802;53.232;6.570;2022-12-07T16:00:02;4.95;;;1.02;;
75220;SDS011;63802;53.232;6.570;2022-12-07T16:02:29;4.60;;;1.30;;
75220;SDS011;63802;53.232;6.570;2022-12-07T16:04:55;4.45;;;1.00;;
75220;SDS011;63802;53.232;6.570;2022-12-07T16:07:21;2.70;;;1.00;;
75220;SDS011;63802;53.232;6.570;2022-12-07T16:09:47;3.83;;;0.80;;
75220;SDS011;63802;53.232;6.570;2022-12-07T16:12:14;5.95;;;1.02;;
75220;SDS011;63802;53.232;6.570;2022-12-07T16:14:40;5.75;;;1.27;;
75220;SDS011;63802;53.232;6.570;2022-12-07T16:17:06;5.32;;;1.40;;
75220;SDS011;63802;53.232;6.570;2022-12-07T16:19:37;6.18;;;1.33;;
75220;SDS011;63802;53.232;6.570;2022-12-07T16:22:03;6.55;;;1.48;;
75220;SDS011;63802;53.232;6.570;2022-12-07T16:24:30;4.15;;;1.15;;
75220;SDS011;63802;53.232;6.570;2022-12-07T16:26:57;4.40;;;1.23;;
75220;SDS011;63802;53.232;6.570;2022-12-07T16:29:23;2.17;;;1.08;;
75220;SDS011;63802;53.232;6.570;2022-12-07T16:31:52;2.30;;;1.17;;
75220;SDS011;63802;53.232;6.570;2022-12-07T16:34:18;6.05;;;1.55;;
75220;SDS011;63802;53.232;6.570;2022-12-07T16:36:45;4.55;;;0.90;;
75220;SDS011;63802;53.232;6.570;2022-12-07T16:39:11;9.18;;;1.40;;
75220;SDS011;63802;53.232;6.570;2022-12-07T16:41:40;1.40;;;1.10;;
75220;SDS011;63802;53.232;6.570;2022-12-07T16:44:08;6.50;;;1.33;;
75220;SDS011;63802;53.232;6.570;2022-12-07T16:46:38;9.00;;;2.08;;
75220;SDS011;63802;53.232;6.570;2022-12-07T16:49:04;1.88;;;1.27;;
75220;SDS011;63802;53.232;6.570;2022-12-07T16:51:30;3.88;;;0.93;;
75220;SDS011;63802;53.232;6.570;2022-12-07T16:53:56;3.63;;;1.27;;
75220;SDS011;63802;53.232;6.570;2022-12-07T16:56:22;1.98;;;1.17;;
75220;SDS011;63802;53.232;6.570;2022-12-07T16:58:47;2.97;;;1.15;;
75220;SDS011;63802;53.232;6.570;2022-12-07T17:01:18;4.03;;;1.30;;
75220;SDS011;63802;53.232;6.570;2022-12-07T17:03:46;4.70;;;1.52;;
75220;SDS011;63802;53.232;6.570;2022-12-07T17:06:21;4.88;;;1.27;;
75220;SDS011;63802;53.232;6.570;2022-12-07T17:08:49;3.65;;;1.60;;
75220;SDS011;63802;53.232;6.570;2022-12-07T17:11:17;8.45;;;2.22;;
75220;SDS011;63802;53.232;6.570;2022-12-07T17:13:45;8.82;;;2.38;;
75220;SDS011;63802;53.232;6.570;2022-12-07T17:16:29;8.98;;;3.00;;
75220;SDS011;63802;53.232;6.570;2022-12-07T17:18:55;9.27;;;2.60;;
75220;SDS011;63802;53.232;6.570;2022-12-07T17:21:21;5.28;;;2.20;;
75220;SDS011;63802;53.232;6.570;2022-12-07T17:23:47;7.25;;;2.33;;
75220;SDS011;63802;53.232;6.570;2022-12-07T17:26:18;7.10;;;1.95;;
75220;SDS011;63802;53.232;6.570;2022-12-07T17:28:48;3.42;;;2.22;;
75220;SDS011;63802;53.232;6.570;2022-12-07T17:31:15;6.88;;;2.03;;
75220;SDS011;63802;53.232;6.570;2022-12-07T17:33:42;7.32;;;2.60;;
75220;SDS011;63802;53.232;6.570;2022-12-07T17:36:11;8.18;;;2.83;;
75220;SDS011;63802;53.232;6.570;2022-12-07T17:38:42;5.50;;;2.55;;
75220;SDS011;63802;53.232;6.570;2022-12-07T17:41:11;6.40;;;2.20;;
75220;SDS011;63802;53.232;6.570;2022-12-07T17:43:59;5.78;;;2.75;;